Terminal Aerodrome Forecast
Issued by NWS

Home | Current Version | Previous Version | Graphics & Text | Print | Product List | Glossary On
Versions: 1 2 3 4 5 6 7 8 9 10 11 12 13 14 15 16 17 18 19 20 21 22 23 24 25 26 27 28 29 30 31 32 33 34 35 36 37
000
FTUS43 KLOT 260900 AAB
TAFDPA
TAF AMD
KDPA 260902Z 2609/2706 30005KT P6SM BKN022
     FM261100 VRB03KT P6SM SCT022 BKN080
     FM261900 17005KT P6SM OVC025 PROB30 2620/2702 2SM -SN OVC015
     FM270200 14005KT P6SM SCT009 OVC012=

USA.gov is the U.S. government's official web portal to all federal, state and local government web resources and services.